createdAt,value
2018-03-30T00:00:08.964Z,4.90
2018-03-30T00:02:35.341Z,4.90
2018-03-30T00:05:02.502Z,4.90
2018-03-30T00:07:28.916Z,4.90
2018-03-30T00:09:56.081Z,4.80
2018-03-30T00:12:23.273Z,4.80
2018-03-30T00:14:50.370Z,4.80
2018-03-30T00:17:16.846Z,4.80
2018-03-30T00:19:43.341Z,4.80
2018-03-30T00:22:10.468Z,4.80
2018-03-30T00:24:36.855Z,4.80
2018-03-30T00:27:03.278Z,4.90
2018-03-30T00:29:31.767Z,4.80
2018-03-30T00:31:58.179Z,4.80
2018-03-30T00:34:25.309Z,4.80
2018-03-30T00:36:52.491Z,4.90
2018-03-30T00:39:18.893Z,4.80
2018-03-30T00:41:46.042Z,4.70
2018-03-30T00:44:13.176Z,4.70
2018-03-30T00:46:39.579Z,4.60
2018-03-30T00:49:05.960Z,4.80
2018-03-30T00:51:33.098Z,4.70
2018-03-30T00:54:00.955Z,4.80
2018-03-30T00:56:27.375Z,4.80
2018-03-30T00:58:53.768Z,4.70
2018-03-30T01:01:20.167Z,4.60
2018-03-30T01:03:47.325Z,4.70
2018-03-30T01:06:14.468Z,4.70
2018-03-30T01:08:40.860Z,4.70
2018-03-30T01:11:09.339Z,4.60
2018-03-30T01:13:35.779Z,4.60
2018-03-30T01:16:02.210Z,4.70
2018-03-30T01:18:28.604Z,4.70
2018-03-30T01:20:55.830Z,4.70
2018-03-30T01:23:22.951Z,4.80
2018-03-30T01:25:49.374Z,4.70
2018-03-30T01:28:15.779Z,4.80
2018-03-30T01:30:42.326Z,4.70
2018-03-30T01:33:08.712Z,4.60
2018-03-30T01:35:35.097Z,4.70
2018-03-30T01:38:01.566Z,4.70
2018-03-30T01:40:28.714Z,4.70
2018-03-30T01:42:55.117Z,4.70
2018-03-30T01:45:21.527Z,4.60
2018-03-30T01:47:47.902Z,4.50
2018-03-30T01:50:14.288Z,4.40
2018-03-30T01:52:40.689Z,4.40
2018-03-30T01:55:07.843Z,4.40
2018-03-30T01:57:34.974Z,4.30
2018-03-30T02:00:01.385Z,4.30
2018-03-30T02:02:27.772Z,4.10
2018-03-30T02:04:54.905Z,3.80
2018-03-30T02:07:22.052Z,3.80
2018-03-30T02:09:48.446Z,3.80
2018-03-30T02:12:14.829Z,3.70
2018-03-30T02:14:41.945Z,3.60
2018-03-30T02:17:08.326Z,3.60
2018-03-30T02:19:34.736Z,3.70
2018-03-30T02:22:01.862Z,3.70
2018-03-30T02:24:28.269Z,3.70
2018-03-30T02:26:54.702Z,3.60
2018-03-30T02:29:21.144Z,3.60
2018-03-30T02:31:47.540Z,3.50
2018-03-30T02:34:14.020Z,3.60
2018-03-30T02:36:40.437Z,3.40
2018-03-30T02:39:06.950Z,3.20
2018-03-30T02:41:33.377Z,3.10
2018-03-30T02:43:59.762Z,3.00
2018-03-30T02:46:26.167Z,3.00
2018-03-30T02:48:52.595Z,2.80
2018-03-30T02:51:18.972Z,2.80
2018-03-30T02:53:46.109Z,2.90
2018-03-30T02:56:12.508Z,2.90
2018-03-30T02:58:38.908Z,2.80
2018-03-30T03:01:05.375Z,2.90
2018-03-30T03:03:31.746Z,2.80
2018-03-30T03:05:58.887Z,2.60
2018-03-30T03:08:25.286Z,2.60
2018-03-30T03:10:51.694Z,2.60
2018-03-30T03:13:18.087Z,2.50
2018-03-30T03:15:44.479Z,2.40
2018-03-30T03:18:10.874Z,2.30
2018-03-30T03:20:38.019Z,2.10
2018-03-30T03:23:05.151Z,2.00
2018-03-30T03:25:31.568Z,2.00
2018-03-30T03:27:57.960Z,1.90
2018-03-30T03:30:24.351Z,1.90
2018-03-30T03:32:50.859Z,1.90
2018-03-30T03:35:17.283Z,2.00
2018-03-30T03:37:43.667Z,1.90
2018-03-30T03:40:10.949Z,1.80
2018-03-30T03:42:37.416Z,1.80
2018-03-30T03:45:03.828Z,1.80
2018-03-30T03:47:30.203Z,1.80
2018-03-30T03:49:56.693Z,1.70
2018-03-30T03:52:23.069Z,1.70
2018-03-30T03:54:49.497Z,1.60
2018-03-30T03:57:15.880Z,1.50
2018-03-30T03:59:42.268Z,1.50
2018-03-30T04:02:09.405Z,1.40
2018-03-30T04:04:36.541Z,1.30
2018-03-30T04:07:02.953Z,1.30
2018-03-30T04:09:29.336Z,1.20
2018-03-30T04:11:56.473Z,1.20
2018-03-30T04:14:22.855Z,1.20
2018-03-30T04:16:49.299Z,1.30
2018-03-30T04:19:15.689Z,1.30
2018-03-30T04:21:42.847Z,1.20
2018-03-30T04:24:09.280Z,1.20
2018-03-30T04:26:35.685Z,1.20
2018-03-30T04:29:02.063Z,1.30
2018-03-30T04:31:28.457Z,1.30
2018-03-30T04:33:55.633Z,1.40
2018-03-30T04:36:22.024Z,1.40
2018-03-30T04:38:49.884Z,1.30
2018-03-30T04:41:16.272Z,1.30
2018-03-30T04:43:42.735Z,1.30
2018-03-30T04:46:09.212Z,1.20
2018-03-30T04:48:36.438Z,1.20
2018-03-30T04:51:02.882Z,1.20
2018-03-30T04:53:30.002Z,0.90
2018-03-30T04:55:56.408Z,0.90
2018-03-30T04:58:22.796Z,0.90
2018-03-30T05:00:49.174Z,0.90
2018-03-30T05:03:15.594Z,0.80
2018-03-30T05:05:42.009Z,0.80
2018-03-30T05:08:09.141Z,1.00
2018-03-30T05:10:35.504Z,0.90
2018-03-30T05:13:01.908Z,1.00
2018-03-30T05:15:28.276Z,1.10
2018-03-30T05:17:54.675Z,1.10
2018-03-30T05:20:21.832Z,1.40
2018-03-30T05:22:48.999Z,1.60
2018-03-30T05:25:15.410Z,1.60
2018-03-30T05:27:42.535Z,1.70
2018-03-30T05:30:08.914Z,1.60
2018-03-30T05:32:35.280Z,1.80
2018-03-30T05:35:01.707Z,1.70
2018-03-30T05:37:28.180Z,1.70
2018-03-30T05:39:54.554Z,1.80
2018-03-30T05:42:20.945Z,1.90
2018-03-30T05:44:47.339Z,1.80
2018-03-30T05:47:13.854Z,1.90
2018-03-30T05:49:40.325Z,1.90
2018-03-30T05:52:06.705Z,2.00
2018-03-30T05:54:33.076Z,2.00
2018-03-30T05:56:59.465Z,2.10
2018-03-30T05:59:25.840Z,2.30
2018-03-30T06:01:52.233Z,2.40
2018-03-30T06:04:18.636Z,2.60
2018-03-30T06:06:45.764Z,3.20
2018-03-30T06:09:12.176Z,3.20
2018-03-30T06:11:38.559Z,3.20
2018-03-30T06:14:05.696Z,3.70
2018-03-30T06:16:32.819Z,3.90
2018-03-30T06:19:00.734Z,4.10
2018-03-30T06:21:27.845Z,4.60
2018-03-30T06:23:55.720Z,4.80
2018-03-30T06:26:22.107Z,4.80
2018-03-30T06:28:48.515Z,4.90
2018-03-30T06:31:14.913Z,4.80
2018-03-30T06:33:42.800Z,4.60
2018-03-30T06:36:09.936Z,4.50
2018-03-30T06:38:37.843Z,4.50
2018-03-30T06:41:10.339Z,4.50
2018-03-30T06:43:36.719Z,4.50
2018-03-30T06:46:03.884Z,4.60
2018-03-30T06:48:30.332Z,4.50
2018-03-30T06:50:56.783Z,4.80
2018-03-30T06:53:23.192Z,5.00
2018-03-30T06:55:49.613Z,5.30
2018-03-30T06:58:16.035Z,5.70
2018-03-30T07:00:43.152Z,6.40
2018-03-30T07:03:09.516Z,6.40
2018-03-30T07:05:36.646Z,7.10
2018-03-30T07:08:04.517Z,7.00
2018-03-30T07:10:30.892Z,7.00
2018-03-30T07:12:57.273Z,6.90
2018-03-30T07:15:23.666Z,6.80
2018-03-30T07:17:50.077Z,7.00
2018-03-30T07:20:17.212Z,7.30
2018-03-30T07:22:44.320Z,7.70
2018-03-30T07:25:10.692Z,7.60
2018-03-30T07:27:37.799Z,8.60
2018-03-30T07:30:04.190Z,8.50
2018-03-30T07:32:30.565Z,8.60
2018-03-30T07:34:56.942Z,8.40
2018-03-30T07:37:23.369Z,8.50
2018-03-30T07:39:50.618Z,8.90
2018-03-30T07:42:17.039Z,8.80
2018-03-30T07:44:43.439Z,9.20
2018-03-30T07:47:09.928Z,9.30
2018-03-30T07:49:36.355Z,9.60
2018-03-30T07:52:03.634Z,9.00
2018-03-30T07:54:30.039Z,9.00
2018-03-30T07:56:56.764Z,8.80
2018-03-30T07:59:24.636Z,8.40
2018-03-30T08:01:51.790Z,8.10
2018-03-30T08:04:18.932Z,8.00
2018-03-30T08:06:45.311Z,7.90
2018-03-30T08:09:11.699Z,7.60
2018-03-30T08:11:38.081Z,8.00
2018-03-30T08:14:04.467Z,8.20
2018-03-30T08:16:31.588Z,8.40
2018-03-30T08:18:58.017Z,8.40
2018-03-30T08:21:24.405Z,8.20
2018-03-30T08:23:50.789Z,8.30
2018-03-30T08:26:17.173Z,8.70
2018-03-30T08:28:43.601Z,8.30
2018-03-30T08:31:09.999Z,8.40
2018-03-30T08:33:36.388Z,8.80
2018-03-30T08:36:02.813Z,9.40
2018-03-30T08:38:29.221Z,9.60
2018-03-30T08:40:56.452Z,9.50
2018-03-30T08:43:23.618Z,9.20
2018-03-30T08:45:50.805Z,8.90
2018-03-30T08:48:17.221Z,8.90
2018-03-30T08:50:43.675Z,8.80
2018-03-30T08:53:10.153Z,8.70
2018-03-30T08:55:37.323Z,8.50
2018-03-30T08:58:04.484Z,8.70
2018-03-30T09:00:30.915Z,8.60
2018-03-30T09:02:57.349Z,8.80
2018-03-30T09:05:23.840Z,9.10
2018-03-30T09:07:51.134Z,9.60
2018-03-30T09:10:17.555Z,9.60
2018-03-30T09:12:44.733Z,9.70
2018-03-30T09:15:11.157Z,9.70
2018-03-30T09:17:37.554Z,9.20
2018-03-30T09:20:03.988Z,8.80
2018-03-30T09:22:30.400Z,8.80
2018-03-30T09:24:57.720Z,8.90
2018-03-30T09:27:24.103Z,8.80
2018-03-30T09:29:53.252Z,9.10
2018-03-30T09:32:19.670Z,9.70
2018-03-30T09:34:46.066Z,10.20
2018-03-30T09:37:12.443Z,10.70
2018-03-30T09:39:38.831Z,9.90
2018-03-30T09:42:05.249Z,9.90
2018-03-30T09:44:31.712Z,10.10
2018-03-30T09:46:58.843Z,9.40
2018-03-30T09:49:25.243Z,9.40
2018-03-30T09:51:51.610Z,9.60
2018-03-30T09:54:18.106Z,9.50
2018-03-30T09:56:44.772Z,10.00
2018-03-30T09:59:12.684Z,10.70
2018-03-30T10:01:39.104Z,10.70
2018-03-30T10:04:08.345Z,11.30
2018-03-30T10:06:34.761Z,11.30
2018-03-30T10:09:01.180Z,11.40
2018-03-30T10:11:27.620Z,10.60
2018-03-30T10:13:54.013Z,10.50
2018-03-30T10:16:20.426Z,10.80
2018-03-30T10:18:46.825Z,10.40
2018-03-30T10:21:13.208Z,10.40
2018-03-30T10:23:39.676Z,10.50
2018-03-30T10:26:06.099Z,10.10
2018-03-30T10:28:32.569Z,9.90
2018-03-30T10:30:58.970Z,10.10
2018-03-30T10:33:25.375Z,9.60
2018-03-30T10:35:51.772Z,9.70
2018-03-30T10:38:18.137Z,9.70
2018-03-30T10:40:44.514Z,9.40
2018-03-30T10:43:10.896Z,9.90
2018-03-30T10:45:38.047Z,10.20
2018-03-30T10:48:05.488Z,9.80
2018-03-30T10:50:31.872Z,9.70
2018-03-30T10:52:58.259Z,9.60
2018-03-30T10:55:25.394Z,9.70
2018-03-30T10:57:51.788Z,9.70
2018-03-30T11:00:18.241Z,9.50
2018-03-30T11:02:44.660Z,9.60
2018-03-30T11:05:11.062Z,9.80
2018-03-30T11:07:38.207Z,9.70
2018-03-30T11:10:04.652Z,9.70
2018-03-30T11:12:31.829Z,9.80
2018-03-30T11:14:58.238Z,9.80
2018-03-30T11:17:25.380Z,10.10
2018-03-30T11:19:52.517Z,10.00
2018-03-30T11:22:18.894Z,9.90
2018-03-30T11:27:26.328Z,9.90
2018-03-30T11:29:52.789Z,10.30
2018-03-30T11:32:19.229Z,10.70
2018-03-30T11:37:17.686Z,9.70
2018-03-30T11:39:44.141Z,9.70
2018-03-30T11:42:10.612Z,9.80
2018-03-30T11:44:37.096Z,10.30
2018-03-30T11:47:03.532Z,10.00
2018-03-30T11:49:29.959Z,10.40
2018-03-30T11:51:56.389Z,10.70
2018-03-30T11:54:22.826Z,10.70
2018-03-30T11:56:49.248Z,10.70
2018-03-30T11:59:15.651Z,10.90
2018-03-30T12:01:42.042Z,11.40
2018-03-30T12:04:08.468Z,11.30
2018-03-30T12:06:34.847Z,10.80
2018-03-30T12:09:02.029Z,10.70
2018-03-30T12:11:28.472Z,10.60
2018-03-30T12:13:54.943Z,10.10
2018-03-30T12:16:22.119Z,10.30
2018-03-30T12:18:48.511Z,10.20
2018-03-30T12:21:14.965Z,10.00
2018-03-30T12:23:41.426Z,9.70
2018-03-30T12:26:07.828Z,9.80
2018-03-30T12:28:34.995Z,9.90
2018-03-30T12:31:01.374Z,9.90
2018-03-30T12:33:27.796Z,9.50
2018-03-30T12:35:54.210Z,9.50
2018-03-30T12:38:20.604Z,9.40
2018-03-30T12:40:47.508Z,9.60
2018-03-30T12:43:14.114Z,9.70
2018-03-30T12:45:40.568Z,9.80
2018-03-30T12:48:07.025Z,9.70
2018-03-30T12:50:33.443Z,9.90
2018-03-30T12:52:59.890Z,9.80
2018-03-30T12:55:26.276Z,9.70
2018-03-30T12:57:52.683Z,9.70
2018-03-30T13:00:19.816Z,10.90
2018-03-30T13:02:46.201Z,10.90
2018-03-30T13:05:12.884Z,11.60
2018-03-30T13:07:39.268Z,11.00
2018-03-30T13:10:05.696Z,10.20
2018-03-30T13:12:32.192Z,9.90
2018-03-30T13:14:59.336Z,9.80
2018-03-30T13:17:27.183Z,9.90
2018-03-30T13:19:53.559Z,9.90
2018-03-30T13:22:20.763Z,9.80
2018-03-30T13:24:47.412Z,9.80
2018-03-30T13:27:13.838Z,9.70
2018-03-30T13:29:40.230Z,9.60
2018-03-30T13:32:06.622Z,9.60
2018-03-30T13:34:33.082Z,9.50
2018-03-30T13:36:59.461Z,9.50
2018-03-30T13:39:25.874Z,9.50
2018-03-30T13:41:52.294Z,9.60
2018-03-30T13:44:19.327Z,9.60
2018-03-30T13:46:46.436Z,9.40
2018-03-30T13:49:12.847Z,9.40
2018-03-30T13:51:42.945Z,9.40
2018-03-30T13:54:12.144Z,9.40
2018-03-30T13:56:39.471Z,9.80
2018-03-30T13:59:06.737Z,9.80
2018-03-30T14:01:38.699Z,9.90
2018-03-30T14:07:14.107Z,9.90
2018-03-30T14:09:41.044Z,10.00
2018-03-30T14:12:23.202Z,9.90
2018-03-30T14:14:49.690Z,9.70
2018-03-30T14:17:23.238Z,9.60
2018-03-30T14:19:52.218Z,9.80
2018-03-30T14:22:23.457Z,9.80
2018-03-30T14:24:50.726Z,10.20
2018-03-30T14:27:20.948Z,10.30
2018-03-30T14:29:51.053Z,10.00
2018-03-30T14:35:11.521Z,10.20
2018-03-30T14:37:49.775Z,10.40
2018-03-30T14:40:22.974Z,10.70
2018-03-30T14:43:10.364Z,10.30
2018-03-30T14:45:38.535Z,10.10
2018-03-30T14:48:22.729Z,9.90
2018-03-30T14:50:56.829Z,9.90
2018-03-30T14:53:29.284Z,9.90
2018-03-30T14:55:55.744Z,10.00
2018-03-30T14:58:24.778Z,10.10
2018-03-30T15:00:52.113Z,10.00
2018-03-30T15:03:23.782Z,10.10
2018-03-30T15:06:26.981Z,10.10
2018-03-30T15:09:16.243Z,10.30
2018-03-30T15:11:48.731Z,10.40
2018-03-30T15:14:20.961Z,10.00
2018-03-30T15:16:51.153Z,9.90
2018-03-30T15:19:22.911Z,9.80
2018-03-30T15:21:50.320Z,9.80
2018-03-30T15:24:19.749Z,10.00
2018-03-30T15:26:49.196Z,9.90
2018-03-30T15:29:15.673Z,10.00
2018-03-30T15:31:48.014Z,10.00
2018-03-30T15:34:18.124Z,10.10
2018-03-30T15:36:51.054Z,9.70
2018-03-30T15:39:17.480Z,9.60
2018-03-30T15:41:44.834Z,9.70
2018-03-30T15:44:11.299Z,9.70
2018-03-30T15:46:40.628Z,9.50
2018-03-30T15:49:07.066Z,9.60
2018-03-30T15:51:34.258Z,9.50
2018-03-30T15:54:01.395Z,9.50
2018-03-30T15:56:39.722Z,9.40
2018-03-30T15:59:06.129Z,9.50
2018-03-30T16:01:33.287Z,9.80
2018-03-30T16:03:59.718Z,9.80
2018-03-30T16:06:26.147Z,9.90
2018-03-30T16:08:52.588Z,9.90
2018-03-30T16:11:32.999Z,9.70
2018-03-30T16:13:59.422Z,9.70
2018-03-30T16:16:25.870Z,9.50
2018-03-30T16:18:55.056Z,9.40
2018-03-30T16:21:21.264Z,9.60
2018-03-30T16:23:47.446Z,9.50
2018-03-30T16:26:14.365Z,9.50
2018-03-30T16:28:40.529Z,9.50
2018-03-30T16:31:06.758Z,9.50
2018-03-30T16:33:33.725Z,9.60
2018-03-30T16:35:59.994Z,9.60
2018-03-30T16:38:26.936Z,9.80
2018-03-30T16:40:53.135Z,9.80
2018-03-30T16:43:19.333Z,10.00
2018-03-30T16:45:45.503Z,10.10
2018-03-30T16:48:11.663Z,10.00
2018-03-30T16:50:37.824Z,10.30
2018-03-30T16:53:03.997Z,10.50
2018-03-30T16:55:30.210Z,10.50
2018-03-30T16:57:56.373Z,10.20
2018-03-30T17:00:22.557Z,10.10
2018-03-30T17:02:48.778Z,10.50
2018-03-30T17:05:14.959Z,10.60
2018-03-30T17:07:41.888Z,10.60
2018-03-30T17:10:08.084Z,10.60
2018-03-30T17:12:35.251Z,10.40
2018-03-30T17:15:02.263Z,10.30
2018-03-30T17:17:28.479Z,10.40
2018-03-30T17:19:54.655Z,10.30
2018-03-30T17:22:20.854Z,10.10
2018-03-30T17:24:47.085Z,10.20
2018-03-30T17:27:13.308Z,10.20
2018-03-30T17:29:39.498Z,10.10
2018-03-30T17:32:05.672Z,10.10
2018-03-30T17:34:31.984Z,9.90
2018-03-30T17:37:04.136Z,9.90
2018-03-30T17:39:31.674Z,10.40
2018-03-30T17:41:58.852Z,10.30
2018-03-30T17:44:25.061Z,10.20
2018-03-30T17:46:51.994Z,10.00
2018-03-30T17:49:19.084Z,10.00
2018-03-30T17:51:45.270Z,9.90
2018-03-30T17:54:13.057Z,10.00
2018-03-30T17:56:39.253Z,9.90
2018-03-30T17:59:06.905Z,10.00
2018-03-30T18:01:33.080Z,10.00
2018-03-30T18:04:00.011Z,10.10
2018-03-30T18:06:26.947Z,10.20
2018-03-30T18:08:53.923Z,10.20
2018-03-30T18:11:20.098Z,10.10
2018-03-30T18:13:46.272Z,10.10
2018-03-30T18:16:12.434Z,10.00
2018-03-30T18:18:39.157Z,9.90
2018-03-30T18:21:05.330Z,9.90
2018-03-30T18:23:31.510Z,9.80
2018-03-30T18:25:57.691Z,10.00
2018-03-30T18:28:25.399Z,9.70
2018-03-30T18:30:51.624Z,9.70
2018-03-30T18:33:17.784Z,10.00
2018-03-30T18:35:44.167Z,10.10
2018-03-30T18:38:10.347Z,10.10
2018-03-30T18:40:38.030Z,10.20
2018-03-30T18:43:05.003Z,10.30
2018-03-30T18:45:31.214Z,10.20
2018-03-30T18:47:58.380Z,10.30
2018-03-30T18:50:24.673Z,10.00
2018-03-30T18:52:53.300Z,10.10
2018-03-30T18:55:19.466Z,10.10
2018-03-30T18:57:46.520Z,10.30
2018-03-30T19:00:12.695Z,10.20
2018-03-30T19:02:38.887Z,10.20
2018-03-30T19:05:06.539Z,10.00
2018-03-30T19:07:32.716Z,10.00
2018-03-30T19:09:58.891Z,10.10
2018-03-30T19:12:25.065Z,9.80
2018-03-30T19:14:51.251Z,10.10
2018-03-30T19:17:18.916Z,10.00
2018-03-30T19:19:47.601Z,10.10
2018-03-30T19:22:15.263Z,10.10
2018-03-30T19:24:41.439Z,10.20
2018-03-30T19:27:07.627Z,10.00
2018-03-30T19:29:33.787Z,10.00
2018-03-30T19:31:59.971Z,9.90
2018-03-30T19:34:26.139Z,9.70
2018-03-30T19:36:52.323Z,9.80
2018-03-30T19:39:18.538Z,9.90
2018-03-30T19:41:46.223Z,9.60
2018-03-30T19:44:13.945Z,9.60
2018-03-30T19:46:40.141Z,9.60
2018-03-30T19:49:07.054Z,9.70
2018-03-30T19:51:33.256Z,9.60
2018-03-30T19:54:00.927Z,9.60
2018-03-30T19:56:28.615Z,9.70
2018-03-30T19:58:54.801Z,9.70
2018-03-30T20:01:20.971Z,9.60
2018-03-30T20:03:47.883Z,9.50
2018-03-30T20:06:14.067Z,9.50
2018-03-30T20:08:40.256Z,9.50
2018-03-30T20:11:06.437Z,9.50
2018-03-30T20:13:32.619Z,9.50
2018-03-30T20:15:58.792Z,9.50
2018-03-30T20:18:24.971Z,9.30
2018-03-30T20:20:51.139Z,9.40
2018-03-30T20:23:17.326Z,9.60
2018-03-30T20:25:43.979Z,9.70
2018-03-30T20:28:10.882Z,9.70
2018-03-30T20:30:37.063Z,9.80
2018-03-30T20:33:03.259Z,9.40
2018-03-30T20:35:29.444Z,9.10
2018-03-30T20:37:55.646Z,8.80
2018-03-30T20:40:21.846Z,8.90
2018-03-30T20:42:48.835Z,9.30
2018-03-30T20:45:15.019Z,9.30
2018-03-30T20:47:41.490Z,9.10
2018-03-30T20:50:07.675Z,9.20
2018-03-30T20:52:33.877Z,9.30
2018-03-30T20:55:00.063Z,9.10
2018-03-30T20:57:26.266Z,9.10
2018-03-30T20:59:52.451Z,9.10
2018-03-30T21:02:18.632Z,9.10
2018-03-30T21:04:45.552Z,9.20
2018-03-30T21:07:11.810Z,9.20
2018-03-30T21:09:38.715Z,9.30
2018-03-30T21:12:04.868Z,9.20
2018-03-30T21:14:31.044Z,9.30
2018-03-30T21:16:57.273Z,9.50
2018-03-30T21:19:23.445Z,9.50
2018-03-30T21:21:49.616Z,9.60
2018-03-30T21:24:15.799Z,9.50
2018-03-30T21:26:42.722Z,9.70
2018-03-30T21:29:08.903Z,9.70
2018-03-30T21:31:35.075Z,9.50
2018-03-30T21:34:01.264Z,9.50
2018-03-30T21:36:27.452Z,9.50
2018-03-30T21:38:54.372Z,9.60
2018-03-30T21:41:20.562Z,9.60
2018-03-30T21:43:46.754Z,9.10
2018-03-30T21:46:13.730Z,9.10
2018-03-30T21:48:39.905Z,9.10
2018-03-30T21:51:06.073Z,9.10
2018-03-30T21:53:33.030Z,9.10
2018-03-30T21:55:59.207Z,9.10
2018-03-30T21:58:26.853Z,9.40
2018-03-30T22:00:53.040Z,9.40
2018-03-30T22:03:19.242Z,9.30
2018-03-30T22:05:46.180Z,9.40
2018-03-30T22:08:12.348Z,9.40
2018-03-30T22:10:39.267Z,8.60
2018-03-30T22:13:06.189Z,8.50
2018-03-30T22:15:32.351Z,8.50
2018-03-30T22:17:58.552Z,8.60
2018-03-30T22:20:24.775Z,8.70
2018-03-30T22:22:50.940Z,8.80
2018-03-30T22:25:17.127Z,8.80
2018-03-30T22:27:44.798Z,8.80
2018-03-30T22:30:11.727Z,8.80
2018-03-30T22:32:38.660Z,8.80
2018-03-30T22:35:04.864Z,8.80
2018-03-30T22:37:31.036Z,8.30
2018-03-30T22:39:57.219Z,8.50
2018-03-30T22:42:23.388Z,8.60
2018-03-30T22:44:50.303Z,8.60
2018-03-30T22:47:16.519Z,8.60
2018-03-30T22:49:42.691Z,8.70
2018-03-30T22:52:08.859Z,8.70
2018-03-30T22:54:35.181Z,8.70
2018-03-30T22:57:01.447Z,8.70
2018-03-30T22:59:27.648Z,8.70
2018-03-30T23:01:53.873Z,8.70
2018-03-30T23:04:20.072Z,8.60
2018-03-30T23:06:46.981Z,8.40
2018-03-30T23:09:13.163Z,8.40
2018-03-30T23:11:39.396Z,8.30
2018-03-30T23:14:05.574Z,8.40
2018-03-30T23:16:32.528Z,8.50
2018-03-30T23:18:58.714Z,8.50
2018-03-30T23:21:24.892Z,8.70
2018-03-30T23:23:51.807Z,8.70
2018-03-30T23:26:17.972Z,8.60
2018-03-30T23:28:44.891Z,7.40
2018-03-30T23:31:12.588Z,7.60
2018-03-30T23:33:39.002Z,7.60
2018-03-30T23:36:05.162Z,7.60
2018-03-30T23:38:31.348Z,7.90
2018-03-30T23:40:59.013Z,8.20
2018-03-30T23:43:25.991Z,8.30
2018-03-30T23:45:52.163Z,8.30
2018-03-30T23:48:18.392Z,8.60
2018-03-30T23:50:44.576Z,8.60
2018-03-30T23:53:10.769Z,8.70
2018-03-30T23:55:37.754Z,8.60
2018-03-30T23:58:04.000Z,8.60
